Glandorf, Ohio
Current Conditions -  °F | °C
As of 12:53 AM on Wednesday 22 Oct 2014 (Local Time) from KFDY Reporting Station
Overcast Overcast  
Wind Chill: 41°   Ceiling: 1700
Heat Index: 45°   Visibility: 10mi
Dew Point: 38°   Wind: 8mph
Humidity: 76%   Direction: 340°NNW
Pressure: 30.18"   Gusts: NA
Location:  41.03°N, 84.08°W
Report Text: KFDY 220453Z AUTO 34007KT 10SM OVC017 07/03 A3018 RMK AO2 SLP221 T00720033 401110072
Loading
Personal Weather Stations






























Interactive Weather Map
Tropical Storm Tracking
New forecast layout! Learn more

10-Day Weather Forecast

Advertisements
Track Severe Weather on mobile